Bookmark and Share
Track history (hours):
 

Meloi

Last reported at 2014-Jan-14 20:28 UTC. Time now 2014-Apr-23 19:14 UTC.
Position N 36°60' E 011°60'.
Warning: this ship's position is months out of date.

Length 180 m; draft 9.5 m.

Type: Cargo ship. MMSI: 351132000.

NotesDate/timePositionNaut miles runAvg speedWind from/ knotsBaromVisibWave heightAir tempDewpointWater temp
2014-Jan-14 20:28N 36°60' E 011°60'  
2014-Jan-11 05:33N 37°46' W 009°51'1312.6
2014-Jan-11 04:30N 37°59' W 009°54'  
2014-Jan-07 13:08N 50°33' E 000°19'19 7.5
2014-Jan-07 10:32N 50°41' E 000°46'5553.1
2014-Jan-07 09:30N 51°17' E 001°52'11 2.7
2014-Jan-07 05:19N 51°10' E 001°39'5 6.7
2014-Jan-07 04:32N 51°13' E 001°46'27 8.7
2014-Jan-07 01:28N 51°35' E 002°10'168 9.8
2014-Jan-06 08:20N 53°38' E 005°19'7 9.6
2014-Jan-06 07:33N 53°40' E 005°31'1110.8
2014-Jan-06 06:31N 53°44' E 005°49'5911.8
2014-Jan-06 01:33N 53°59' E 007°25'1110.8
2014-Jan-06 00:33N 54°02' E 007°43'1110.6
2014-Jan-05 23:33N 54°01' E 008°01'1010.0
2014-Jan-05 22:33N 54°00' E 008°18'1212.2
2014-Jan-05 21:33N 53°57' E 008°38'1313.4
2014-Jan-05 20:34N 53°51' E 008°58'1312.6
2014-Jan-05 19:33N 53°51' E 009°19'1313.1
2014-Jan-05 18:33N 53°40' E 009°31'1110.7
2014-Jan-05 17:33N 53°34' E 009°46'7 7.3
2014-Jan-05 16:34N 53°32' E 009°57'0 0.4
2014-Jan-05 15:29N 53°31' E 009°57'0 0.0
2014-Jan-05 14:32N 53°31' E 009°57'0 0.0
2014-Jan-05 12:26N 53°31' E 009°57'0 0.0
2014-Jan-05 11:29N 53°31' E 009°57'0 0.0
2014-Jan-05 10:32N 53°31' E 009°57'0 0.0
2014-Jan-05 09:32N 53°31' E 009°57'0 0.0
2014-Jan-05 08:32N 53°31' E 009°57'0 0.0
2014-Jan-05 07:32N 53°31' E 009°57'0 0.0
2014-Jan-05 06:29N 53°31' E 009°57'0 0.0
2014-Jan-05 05:32N 53°31' E 009°57'0 0.0
2014-Jan-05 04:32N 53°31' E 009°57'0 0.0
2014-Jan-05 03:32N 53°31' E 009°57'0 0.0
2014-Jan-05 02:29N 53°31' E 009°57'0 0.0
2014-Jan-05 01:29N 53°31' E 009°57'0 0.0
2014-Jan-05 00:29N 53°31' E 009°57'0 0.0
2014-Jan-04 22:32N 53°31' E 009°57'0 0.0
2014-Jan-04 21:32N 53°31' E 009°57'0 0.0
2014-Jan-04 20:32N 53°31' E 009°57'  

Dump ship's entire track history

sailing weather and tide predictions

Meloi — 3FOD — position and weather